Time;durP1;ratioP1;P1;durP2;ratioP2;P2;SDS_P1;SDS_P2;PMS_P1;PMS_P2;Temp;Humidity;BMP_temperature;BMP_pressure;BME280_temperature;BME280_humidity;BME280_pressure;Samples;Min_cycle;Max_cycle;Signal;HPM_P1;HPM_P2
2023/03/09 00:00:34;;;;;;;2.33;0.57;;;11.00;99.90;;;;;;4974236;28;20118;-78
2023/03/09 00:03:00;;;;;;;1.67;0.60;;;11.10;99.90;;;;;;4977359;28;20027;-77
2023/03/09 00:05:25;;;;;;;1.20;0.47;;;11.10;99.90;;;;;;4973969;28;20031;-76
2023/03/09 00:07:53;;;;;;;2.30;0.82;;;11.10;99.90;;;;;;4973917;28;20033;-76
2023/03/09 00:10:19;;;;;;;2.90;1.05;;;11.10;99.90;;;;;;4974514;28;20023;-77
2023/03/09 00:12:45;;;;;;;4.90;0.60;;;11.10;99.90;;;;;;4975201;28;20499;-78
2023/03/09 00:15:11;;;;;;;4.18;0.88;;;11.10;99.90;;;;;;4974135;28;20484;-78
2023/03/09 00:17:36;;;;;;;0.43;0.30;;;11.20;99.90;;;;;;4974539;28;20023;-77
2023/03/09 00:20:17;;;;;;;0.88;0.45;;;11.20;99.90;;;;;;4975988;28;20027;-77
2023/03/09 00:22:51;;;;;;;3.53;0.40;;;11.30;99.90;;;;;;4974511;28;20476;-77
2023/03/09 00:25:17;;;;;;;1.17;0.50;;;11.40;99.90;;;;;;4975311;28;20054;-76
2023/03/09 00:27:47;;;;;;;2.55;0.52;;;11.40;99.90;;;;;;4973593;28;20073;-76
2023/03/09 00:30:13;;;;;;;0.43;0.30;;;11.50;99.90;;;;;;4974134;28;20105;-76
2023/03/09 00:32:39;;;;;;;0.85;0.43;;;11.60;99.90;;;;;;4969675;28;20469;-76
2023/03/09 00:35:05;;;;;;;1.77;0.63;;;11.60;99.90;;;;;;4973140;28;20027;-76
2023/03/09 00:37:31;;;;;;;1.50;0.40;;;11.60;99.90;;;;;;4975201;28;20363;-77
2023/03/09 00:39:57;;;;;;;1.17;0.63;;;11.60;99.90;;;;;;4960090;28;20031;-76
2023/03/09 00:42:22;;;;;;;2.35;0.65;;;11.60;99.90;;;;;;4959793;28;20034;-76
2023/03/09 00:44:50;;;;;;;1.58;0.50;;;11.60;99.90;;;;;;4960123;28;20023;-76
2023/03/09 00:47:16;;;;;;;3.30;1.05;;;11.60;99.90;;;;;;4970959;28;20023;-76
2023/03/09 00:49:42;;;;;;;3.38;0.80;;;11.40;99.90;;;;;;4971630;28;20093;-76
2023/03/09 00:52:07;;;;;;;2.80;0.40;;;11.00;99.90;;;;;;4968266;28;20123;-77
2023/03/09 00:54:33;;;;;;;3.58;0.40;;;10.80;99.90;;;;;;4971846;28;20126;-77
2023/03/09 00:57:02;;;;;;;1.65;0.30;;;10.40;99.90;;;;;;4972800;28;20470;-77
2023/03/09 00:59:28;;;;;;;2.13;0.38;;;10.20;99.90;;;;;;4973944;28;20360;-77
2023/03/09 01:01:54;;;;;;;2.08;0.43;;;10.00;99.90;;;;;;4978649;28;20516;-75
2023/03/09 01:04:19;;;;;;;1.95;0.28;;;9.80;99.90;;;;;;4970847;28;20035;-76
2023/03/09 01:06:45;;;;;;;2.70;0.20;;;9.70;99.90;;;;;;4972205;28;20022;-76
2023/03/09 01:09:11;;;;;;;1.65;0.20;;;9.60;99.90;;;;;;4966992;28;20026;-77
2023/03/09 01:11:37;;;;;;;0.88;0.30;;;9.40;99.90;;;;;;4966911;28;21168;-76
2023/03/09 01:14:03;;;;;;;2.88;0.25;;;9.40;99.90;;;;;;4969432;28;20134;-76
2023/03/09 01:16:28;;;;;;;0.40;0.20;;;9.40;99.90;;;;;;4969146;28;20041;-77
2023/03/09 01:18:54;;;;;;;2.30;0.20;;;9.30;99.90;;;;;;4970078;28;20043;-77
2023/03/09 01:21:20;;;;;;;1.92;0.30;;;9.20;99.90;;;;;;4967331;28;20094;-76
2023/03/09 01:23:46;;;;;;;1.00;0.30;;;9.20;99.90;;;;;;4974844;28;20027;-76
2023/03/09 01:26:12;;;;;;;1.52;0.30;;;9.10;99.90;;;;;;4987791;28;20041;-76
2023/03/09 01:28:38;;;;;;;1.95;0.20;;;9.10;99.90;;;;;;4984315;28;20019;-76
2023/03/09 01:31:09;;;;;;;1.73;0.30;;;9.10;99.90;;;;;;4977650;28;20027;-76
2023/03/09 01:33:34;;;;;;;1.65;0.20;;;9.10;99.90;;;;;;4976232;28;20034;-76
2023/03/09 01:36:06;;;;;;;2.13;0.38;;;9.10;99.90;;;;;;4970747;28;20035;-75
2023/03/09 01:38:32;;;;;;;0.35;0.20;;;9.10;99.90;;;;;;4970114;28;20041;-75
2023/03/09 01:40:58;;;;;;;1.40;0.30;;;9.10;99.90;;;;;;4969784;28;20393;-76
2023/03/09 01:43:34;;;;;;;0.38;0.20;;;9.10;99.90;;;;;;4967621;28;20120;-75
2023/03/09 01:46:21;;;;;;;0.25;0.20;;;9.10;99.90;;;;;;4968341;28;20027;-76
2023/03/09 01:49:16;;;;;;;0.63;0.20;;;9.10;99.90;;;;;;4968369;28;20058;-76
2023/03/09 01:52:05;;;;;;;1.67;0.38;;;9.10;99.90;;;;;;4951290;28;20476;-75
2023/03/09 01:54:43;;;;;;;0.93;0.20;;;9.00;99.90;;;;;;4965209;28;20506;-75
2023/03/09 01:57:19;;;;;;;1.00;0.28;;;9.00;99.90;;;;;;4967767;28;20059;-78
2023/03/09 01:59:47;;;;;;;1.13;0.28;;;8.90;99.90;;;;;;4970586;28;20026;-76
2023/03/09 02:02:15;;;;;;;0.90;0.30;;;9.00;99.90;;;;;;4971953;28;20054;-77
2023/03/09 02:04:45;;;;;;;0.32;0.20;;;8.90;99.90;;;;;;4971978;28;20038;-77
2023/03/09 02:07:15;;;;;;;1.27;0.50;;;8.90;99.90;;;;;;4972681;28;20487;-77
2023/03/09 02:09:46;;;;;;;1.17;0.45;;;8.90;99.90;;;;;;4970084;28;20030;-77
2023/03/09 02:12:16;;;;;;;2.22;0.50;;;8.90;99.90;;;;;;4972367;28;20023;-75
2023/03/09 02:14:42;;;;;;;1.60;0.50;;;8.80;99.90;;;;;;4971125;28;20027;-76
2023/03/09 02:17:11;;;;;;;0.30;0.20;;;8.80;99.90;;;;;;4971351;28;20448;-76
2023/03/09 02:20:00;;;;;;;0.80;0.30;;;8.80;99.90;;;;;;4972278;28;20511;-76
2023/03/09 02:22:26;;;;;;;3.47;0.20;;;8.70;99.90;;;;;;4959084;28;20058;-76
2023/03/09 02:25:09;;;;;;;2.08;0.20;;;8.70;99.90;;;;;;4975600;28;20046;-76
2023/03/09 02:27:35;;;;;;;0.38;0.30;;;8.70;99.90;;;;;;4973257;28;20027;-76
2023/03/09 02:30:01;;;;;;;0.50;0.30;;;8.70;99.90;;;;;;4969049;28;20122;-76
2023/03/09 02:32:29;;;;;;;1.75;0.25;;;8.70;99.90;;;;;;4968977;28;20110;-77
2023/03/09 02:34:55;;;;;;;0.52;0.40;;;8.60;99.90;;;;;;4984326;28;20027;-76
2023/03/09 02:37:33;;;;;;;0.52;0.20;;;8.60;99.90;;;;;;4968341;28;20035;-76
2023/03/09 02:40:10;;;;;;;0.57;0.28;;;8.60;99.90;;;;;;4976117;28;20101;-77
2023/03/09 02:42:37;;;;;;;0.22;0.20;;;8.60;99.90;;;;;;4975858;28;20018;-75
2023/03/09 02:45:03;;;;;;;0.40;0.10;;;8.50;99.90;;;;;;4972806;28;20019;-76
2023/03/09 02:47:29;;;;;;;1.30;0.28;;;8.50;99.90;;;;;;4975099;28;20023;-77
2023/03/09 02:49:55;;;;;;;2.42;0.30;;;8.50;99.90;;;;;;4972510;28;20034;-78
2023/03/09 02:52:20;;;;;;;0.80;0.20;;;8.50;99.90;;;;;;4974841;28;20031;-77
2023/03/09 02:54:46;;;;;;;0.50;0.20;;;8.50;99.90;;;;;;4969098;28;20027;-77
2023/03/09 02:57:13;;;;;;;0.30;0.20;;;8.50;99.90;;;;;;4976935;28;20098;-77
2023/03/09 02:59:38;;;;;;;1.17;0.20;;;8.50;99.90;;;;;;4967417;28;20027;-76
2023/03/09 03:02:04;;;;;;;0.30;0.20;;;8.60;99.90;;;;;;4974366;28;20034;-75
2023/03/09 03:04:30;;;;;;;0.90;0.10;;;8.60;99.90;;;;;;4973956;28;20360;-75
2023/03/09 03:06:55;;;;;;;0.55;0.20;;;8.60;99.90;;;;;;4974298;28;20034;-76
2023/03/09 03:09:21;;;;;;;0.22;0.13;;;8.60;99.90;;;;;;4974048;28;20554;-75
2023/03/09 03:11:47;;;;;;;1.17;0.20;;;8.70;99.90;;;;;;4975741;28;20027;-75
2023/03/09 03:14:12;;;;;;;1.52;0.20;;;8.70;99.90;;;;;;4974523;28;20023;-74
2023/03/09 03:16:38;;;;;;;0.40;0.20;;;8.70;99.90;;;;;;4946959;23;1140531;-72
2023/03/09 03:19:03;;;;;;;0.98;0.30;;;8.80;99.90;;;;;;4967844;28;20038;-73
2023/03/09 03:21:29;;;;;;;0.50;0.40;;;8.80;99.90;;;;;;4966905;28;20026;-72
2023/03/09 03:23:55;;;;;;;1.50;0.30;;;8.90;99.90;;;;;;4969681;28;20018;-72
2023/03/09 03:26:20;;;;;;;0.95;0.30;;;8.90;99.90;;;;;;4965458;28;20043;-72
2023/03/09 03:28:46;;;;;;;1.67;0.60;;;8.90;99.90;;;;;;4967199;28;20135;-72
2023/03/09 03:31:12;;;;;;;0.73;0.20;;;8.90;99.90;;;;;;4963748;28;20034;-72
2023/03/09 03:33:38;;;;;;;0.82;0.40;;;9.00;99.90;;;;;;4968780;28;21059;-72
2023/03/09 03:36:04;;;;;;;1.90;0.30;;;8.90;99.90;;;;;;4972132;28;20039;-72
2023/03/09 03:38:29;;;;;;;1.20;0.30;;;8.90;99.90;;;;;;4964997;28;20061;-72
2023/03/09 03:40:55;;;;;;;2.17;0.30;;;8.90;99.90;;;;;;4966195;28;20031;-73
2023/03/09 03:43:21;;;;;;;2.33;0.50;;;9.00;99.90;;;;;;4988315;28;20034;-71
2023/03/09 03:45:50;;;;;;;0.73;0.40;;;9.00;99.90;;;;;;4967941;28;20066;-73
2023/03/09 03:48:16;;;;;;;2.33;0.52;;;9.00;99.90;;;;;;4971958;28;20033;-74
2023/03/09 03:50:41;;;;;;;4.50;0.80;;;9.10;99.90;;;;;;4970676;28;20027;-74
2023/03/09 03:53:07;;;;;;;0.57;0.40;;;9.00;99.90;;;;;;4970709;28;20026;-73
2023/03/09 03:55:33;;;;;;;0.73;0.30;;;9.00;99.90;;;;;;4961481;28;20472;-73
2023/03/09 03:57:59;;;;;;;3.90;0.50;;;9.00;99.90;;;;;;4962845;28;20027;-73
2023/03/09 04:00:25;;;;;;;2.80;0.40;;;9.00;99.90;;;;;;4964352;28;20361;-73
2023/03/09 04:02:50;;;;;;;1.95;0.20;;;9.00;99.90;;;;;;4967776;28;20031;-73
2023/03/09 04:05:16;;;;;;;2.53;0.52;;;9.00;99.90;;;;;;4965698;28;20476;-73
2023/03/09 04:07:42;;;;;;;0.98;0.30;;;9.00;99.90;;;;;;4970614;28;20026;-73
2023/03/09 04:10:08;;;;;;;0.47;0.30;;;9.00;99.90;;;;;;4975517;28;20023;-73
2023/03/09 04:12:34;;;;;;;1.02;0.20;;;9.00;99.90;;;;;;4970833;28;20030;-73
2023/03/09 04:15:00;;;;;;;0.52;0.30;;;9.00;99.90;;;;;;4968781;28;20474;-73
2023/03/09 04:17:26;;;;;;;0.40;0.30;;;9.00;99.90;;;;;;4967010;28;20391;-73
2023/03/09 04:19:51;;;;;;;1.08;0.30;;;9.00;99.90;;;;;;4988315;28;20550;-73
2023/03/09 04:22:17;;;;;;;2.40;0.57;;;9.00;99.90;;;;;;4966157;28;20459;-73
2023/03/09 04:24:42;;;;;;;1.42;0.52;;;9.00;99.90;;;;;;4973134;28;20197;-74
2023/03/09 04:27:08;;;;;;;2.97;0.30;;;8.90;99.90;;;;;;4967287;28;21273;-73
2023/03/09 04:29:34;;;;;;;0.80;0.20;;;9.00;99.90;;;;;;4974375;28;20023;-73
2023/03/09 04:31:59;;;;;;;1.27;0.22;;;8.90;99.90;;;;;;4970131;28;20053;-73
2023/03/09 04:34:25;;;;;;;1.83;0.40;;;8.90;99.90;;;;;;4972924;28;20031;-73
2023/03/09 04:36:51;;;;;;;1.15;0.50;;;8.90;99.90;;;;;;4974562;28;20037;-73
2023/03/09 04:39:16;;;;;;;1.27;0.60;;;8.90;99.90;;;;;;4970441;28;20157;-73
2023/03/09 04:41:42;;;;;;;0.90;0.30;;;8.90;99.90;;;;;;4975265;28;20078;-73
2023/03/09 04:44:07;;;;;;;1.55;0.60;;;8.90;99.90;;;;;;4972140;28;20030;-72
2023/03/09 04:46:33;;;;;;;1.98;0.70;;;8.90;99.90;;;;;;4973507;28;20428;-73
2023/03/09 04:48:59;;;;;;;1.65;0.50;;;8.90;99.90;;;;;;4967585;28;20031;-73
2023/03/09 04:51:24;;;;;;;1.67;0.35;;;8.90;99.90;;;;;;4974801;28;20030;-73
2023/03/09 04:53:50;;;;;;;2.58;0.60;;;8.90;99.90;;;;;;4970691;28;20475;-72
2023/03/09 04:56:16;;;;;;;2.60;0.60;;;8.90;99.90;;;;;;4967082;28;20348;-73
2023/03/09 04:58:41;;;;;;;2.83;0.70;;;8.90;99.90;;;;;;4969174;28;20139;-72
2023/03/09 05:01:07;;;;;;;2.28;0.70;;;8.90;99.90;;;;;;4973491;28;20055;-72
2023/03/09 05:03:32;;;;;;;2.25;0.90;;;8.90;99.90;;;;;;4966761;28;20398;-72
2023/03/09 05:05:58;;;;;;;2.92;1.00;;;8.90;99.90;;;;;;4971446;28;20075;-72
2023/03/09 05:08:24;;;;;;;5.10;0.85;;;8.90;99.90;;;;;;4967461;28;20027;-72
2023/03/09 05:10:49;;;;;;;3.10;1.00;;;8.90;99.90;;;;;;4969156;28;20027;-71
2023/03/09 05:13:16;;;;;;;3.08;0.80;;;8.90;99.90;;;;;;4970099;28;20018;-72
2023/03/09 05:15:41;;;;;;;3.13;0.90;;;8.90;99.90;;;;;;4975818;28;20038;-72
2023/03/09 05:18:08;;;;;;;6.97;1.25;;;8.90;99.90;;;;;;4972878;28;20736;-72
2023/03/09 05:20:34;;;;;;;6.00;1.20;;;8.90;99.90;;;;;;4968792;28;20459;-72
2023/03/09 05:23:01;;;;;;;4.60;1.25;;;8.90;99.90;;;;;;4972683;28;20487;-71
2023/03/09 05:25:27;;;;;;;6.35;1.23;;;8.90;99.90;;;;;;4962876;28;20491;-72
2023/03/09 05:27:52;;;;;;;8.98;1.83;;;8.90;99.90;;;;;;4972214;28;20033;-72
2023/03/09 05:30:19;;;;;;;8.48;1.30;;;8.90;99.90;;;;;;4966610;28;20023;-72
2023/03/09 05:32:49;;;;;;;9.60;1.70;;;8.90;99.90;;;;;;4968265;28;20022;-73
2023/03/09 05:35:19;;;;;;;5.28;1.30;;;8.90;99.90;;;;;;4970070;28;20031;-72
2023/03/09 05:37:45;;;;;;;10.35;1.75;;;8.80;99.90;;;;;;4972782;28;20053;-72
2023/03/09 05:40:13;;;;;;;10.25;1.55;;;8.80;99.90;;;;;;4965022;28;20035;-73
2023/03/09 05:42:39;;;;;;;6.25;1.42;;;8.90;99.90;;;;;;4970961;28;20034;-72
2023/03/09 05:45:05;;;;;;;6.18;1.42;;;8.90;99.90;;;;;;4966131;28;20045;-73
2023/03/09 05:47:31;;;;;;;2.72;1.05;;;8.90;99.90;;;;;;4974882;28;20085;-76
2023/03/09 05:49:57;;;;;;;7.10;1.40;;;8.90;99.90;;;;;;4988463;28;20072;-75
2023/03/09 05:52:23;;;;;;;7.00;1.75;;;8.90;99.90;;;;;;4973786;28;20491;-76
2023/03/09 05:54:48;;;;;;;7.75;1.27;;;8.90;99.90;;;;;;4974178;28;20216;-75
2023/03/09 05:57:14;;;;;;;7.35;1.23;;;8.90;99.90;;;;;;4963635;28;20030;-74
2023/03/09 05:59:40;;;;;;;6.95;1.45;;;8.90;99.90;;;;;;4982731;28;20036;-76
2023/03/09 06:02:06;;;;;;;2.95;0.88;;;9.00;99.90;;;;;;4972227;28;21515;-76
2023/03/09 06:04:32;;;;;;;3.30;1.10;;;8.90;99.90;;;;;;4975407;28;20026;-74
2023/03/09 06:06:57;;;;;;;5.10;1.23;;;8.90;99.90;;;;;;4969107;28;20183;-73
2023/03/09 06:09:23;;;;;;;7.85;1.58;;;8.90;99.90;;;;;;4966923;28;20035;-75
2023/03/09 06:11:49;;;;;;;3.25;0.85;;;8.90;99.90;;;;;;4973163;28;20104;-75
2023/03/09 06:14:14;;;;;;;5.63;1.08;;;8.90;99.90;;;;;;4965656;28;20035;-75
2023/03/09 06:16:40;;;;;;;7.43;1.02;;;9.00;99.90;;;;;;4966544;28;20034;-74
2023/03/09 06:19:06;;;;;;;4.88;1.00;;;9.00;99.90;;;;;;4971390;28;20026;-75
2023/03/09 06:21:32;;;;;;;6.45;1.27;;;9.00;99.90;;;;;;4971793;28;20034;-75
2023/03/09 06:23:58;;;;;;;5.93;1.10;;;9.00;99.90;;;;;;4965872;28;20552;-76
2023/03/09 06:26:24;;;;;;;6.20;0.80;;;9.00;99.90;;;;;;4966742;28;20511;-76
2023/03/09 06:28:50;;;;;;;7.22;1.10;;;9.00;99.90;;;;;;4971839;28;20464;-75
2023/03/09 06:31:17;;;;;;;5.03;1.17;;;9.00;99.90;;;;;;4966877;28;20030;-75
2023/03/09 06:33:44;;;;;;;9.18;1.58;;;9.00;99.90;;;;;;4970494;28;20022;-76
2023/03/09 06:36:12;;;;;;;9.77;0.93;;;9.00;99.90;;;;;;4971484;28;20165;-75
2023/03/09 06:38:38;;;;;;;3.35;1.02;;;9.10;99.90;;;;;;4958110;28;20035;-75
2023/03/09 06:41:04;;;;;;;5.40;1.20;;;9.10;99.90;;;;;;4964291;28;20043;-76
2023/03/09 06:43:29;;;;;;;6.43;0.95;;;9.20;99.90;;;;;;4969368;28;20102;-76
2023/03/09 06:45:55;;;;;;;7.03;1.20;;;9.20;99.90;;;;;;4961563;28;20038;-76
2023/03/09 06:48:21;;;;;;;7.65;1.38;;;9.20;99.90;;;;;;4967270;28;20035;-76
2023/03/09 06:50:48;;;;;;;3.63;0.77;;;9.20;99.90;;;;;;4972542;28;20033;-75
2023/03/09 06:53:14;;;;;;;5.70;1.65;;;9.20;99.90;;;;;;4970332;28;20099;-76
2023/03/09 06:55:40;;;;;;;6.85;0.98;;;9.30;99.90;;;;;;4966747;28;20046;-76
2023/03/09 06:58:06;;;;;;;4.93;1.00;;;9.30;99.90;;;;;;4963972;28;20027;-75
2023/03/09 07:00:32;;;;;;;6.10;1.10;;;9.30;99.90;;;;;;4966713;28;20065;-75
2023/03/09 07:02:58;;;;;;;6.38;1.30;;;9.40;99.90;;;;;;4961910;28;20086;-75
2023/03/09 07:05:24;;;;;;;5.40;1.13;;;9.40;99.90;;;;;;4962389;28;20035;-76
2023/03/09 07:07:49;;;;;;;5.05;0.80;;;9.40;99.90;;;;;;4969464;28;20403;-76
2023/03/09 07:10:15;;;;;;;4.75;0.90;;;9.30;99.90;;;;;;4944644;28;20499;-75
2023/03/09 07:12:41;;;;;;;4.03;0.95;;;9.30;99.90;;;;;;4972201;28;20038;-75
2023/03/09 07:15:08;;;;;;;3.78;0.95;;;9.30;99.90;;;;;;4969521;28;20519;-75
2023/03/09 07:17:34;;;;;;;3.90;0.80;;;9.30;99.90;;;;;;4973762;28;20376;-77
2023/03/09 07:19:59;;;;;;;3.35;0.85;;;9.30;99.90;;;;;;4973820;28;20030;-76
2023/03/09 07:22:25;;;;;;;2.83;0.65;;;9.30;99.90;;;;;;4968781;28;20593;-77
2023/03/09 07:24:51;;;;;;;3.60;0.90;;;9.30;99.90;;;;;;4988602;28;20054;-73
2023/03/09 07:27:19;;;;;;;6.45;1.00;;;9.30;99.90;;;;;;4973610;28;20027;-75
2023/03/09 07:29:45;;;;;;;4.50;1.00;;;9.40;99.90;;;;;;4969743;28;20027;-76
2023/03/09 07:32:11;;;;;;;6.88;1.48;;;9.40;99.90;;;;;;4961893;28;20066;-77
2023/03/09 07:34:37;;;;;;;3.78;1.25;;;9.50;99.90;;;;;;4844917;28;20787;-75
2023/03/09 07:37:04;;;;;;;3.50;0.82;;;9.60;99.90;;;;;;4949590;28;20027;-75
2023/03/09 07:39:30;;;;;;;4.53;1.15;;;9.70;99.90;;;;;;4953812;28;20035;-76
2023/03/09 07:41:56;;;;;;;4.32;1.10;;;9.70;99.90;;;;;;4952365;28;20502;-77
2023/03/09 07:44:21;;;;;;;5.53;1.20;;;9.80;99.90;;;;;;4950384;28;20492;-74
2023/03/09 07:46:47;;;;;;;3.85;0.70;;;9.90;99.90;;;;;;4952343;28;20118;-77
2023/03/09 07:49:13;;;;;;;2.20;0.68;;;10.00;99.90;;;;;;4951241;28;20054;-69
2023/03/09 07:51:38;;;;;;;2.63;0.75;;;10.10;99.90;;;;;;4942691;28;20027;-68
2023/03/09 07:54:05;;;;;;;2.95;0.70;;;10.60;99.90;;;;;;4939838;28;20030;-69
2023/03/09 07:56:31;;;;;;;2.10;0.70;;;11.00;99.90;;;;;;4947600;28;20035;-68
2023/03/09 07:58:58;;;;;;;6.70;0.80;;;11.20;99.90;;;;;;4947079;28;20506;-75
2023/03/09 08:01:24;;;;;;;4.07;1.05;;;11.30;99.90;;;;;;4947448;28;20032;-77
2023/03/09 08:03:49;;;;;;;3.05;0.90;;;11.20;99.90;;;;;;4946231;28;20042;-77
2023/03/09 08:06:16;;;;;;;3.95;0.90;;;11.10;99.90;;;;;;4952131;28;20086;-77
2023/03/09 08:08:42;;;;;;;4.15;0.90;;;11.00;99.90;;;;;;4947903;28;20122;-76
2023/03/09 08:11:08;;;;;;;3.90;1.05;;;10.90;99.90;;;;;;4951444;28;20110;-78
2023/03/09 08:13:35;;;;;;;3.15;0.82;;;10.90;99.90;;;;;;4947779;28;20028;-77
2023/03/09 08:16:03;;;;;;;3.42;0.95;;;10.70;99.90;;;;;;4957267;28;20122;-75
2023/03/09 08:18:29;;;;;;;7.05;0.90;;;10.70;99.90;;;;;;4948490;28;20031;-75
2023/03/09 08:21:05;;;;;;;5.60;1.05;;;10.70;99.90;;;;;;4947181;28;20376;-74
2023/03/09 08:23:33;;;;;;;6.82;1.13;;;10.70;99.90;;;;;;4950613;28;20496;-72
2023/03/09 08:25:59;;;;;;;5.28;1.17;;;10.70;99.90;;;;;;4950982;28;20023;-75
2023/03/09 08:28:24;;;;;;;2.75;0.70;;;10.70;99.90;;;;;;4955553;28;20051;-75
2023/03/09 08:30:50;;;;;;;4.45;1.27;;;10.80;99.90;;;;;;4938260;28;20162;-76
2023/03/09 08:33:15;;;;;;;9.38;1.25;;;10.80;99.90;;;;;;4951404;28;20027;-75
2023/03/09 08:35:41;;;;;;;3.95;0.77;;;10.90;99.90;;;;;;4945286;28;20031;-75
2023/03/09 08:38:07;;;;;;;6.30;1.02;;;10.90;99.90;;;;;;4963740;28;20023;-76
2023/03/09 08:40:32;;;;;;;4.80;1.00;;;11.00;99.90;;;;;;4949069;28;20031;-75
2023/03/09 08:42:58;;;;;;;3.47;0.80;;;11.00;99.90;;;;;;4952882;28;20058;-75
2023/03/09 08:45:24;;;;;;;8.25;1.02;;;11.00;99.90;;;;;;4946427;28;20392;-75
2023/03/09 08:47:49;;;;;;;5.10;1.15;;;11.00;99.90;;;;;;4946350;28;20028;-75
2023/03/09 08:50:15;;;;;;;4.28;0.80;;;11.10;99.90;;;;;;4946425;28;20027;-75
2023/03/09 08:52:41;;;;;;;4.88;0.88;;;11.10;99.90;;;;;;4949291;28;20034;-73
2023/03/09 08:55:09;;;;;;;2.80;0.90;;;11.10;99.90;;;;;;4952879;28;20063;-74
2023/03/09 08:57:35;;;;;;;2.53;0.70;;;11.10;99.90;;;;;;4954467;28;20034;-74
2023/03/09 09:00:00;;;;;;;4.70;0.90;;;11.10;99.90;;;;;;4953148;28;20622;-74
2023/03/09 09:02:29;;;;;;;3.95;0.65;;;11.20;99.90;;;;;;4951915;28;20049;-75
2023/03/09 09:04:55;;;;;;;2.35;0.70;;;11.20;99.90;;;;;;4946785;28;20035;-72
2023/03/09 09:07:20;;;;;;;3.83;0.82;;;11.30;99.90;;;;;;4946810;28;20119;-75
2023/03/09 09:09:46;;;;;;;2.65;0.70;;;11.30;99.90;;;;;;4950624;28;20023;-74
2023/03/09 09:12:12;;;;;;;3.53;0.73;;;11.30;99.90;;;;;;4949186;28;20031;-75
2023/03/09 09:14:38;;;;;;;1.98;0.63;;;11.30;99.90;;;;;;4948658;28;20045;-77
2023/03/09 09:17:09;;;;;;;2.60;0.50;;;11.30;99.90;;;;;;4967024;23;20088;-70
2023/03/09 09:19:35;;;;;;;2.42;0.57;;;11.40;99.90;;;;;;4968821;28;20066;-73
2023/03/09 09:22:00;;;;;;;6.50;1.27;;;11.40;99.90;;;;;;4968376;28;20106;-71
2023/03/09 09:24:32;;;;;;;2.67;0.60;;;11.30;99.90;;;;;;4971742;28;20118;-73
2023/03/09 09:26:59;;;;;;;5.60;0.65;;;11.30;99.90;;;;;;4967837;28;20452;-72
2023/03/09 09:29:26;;;;;;;1.75;0.65;;;11.40;99.90;;;;;;4949301;28;20027;-74
2023/03/09 09:31:52;;;;;;;4.35;0.70;;;11.40;99.90;;;;;;4948866;28;20915;-73
2023/03/09 09:34:18;;;;;;;2.67;0.82;;;11.50;99.90;;;;;;4947252;28;20027;-73
2023/03/09 09:36:45;;;;;;;4.97;1.52;;;11.50;99.90;;;;;;4945539;28;20027;-74
2023/03/09 09:39:14;;;;;;;5.30;0.80;;;11.60;99.90;;;;;;4948397;28;20031;-73
2023/03/09 09:41:45;;;;;;;2.80;0.65;;;11.60;99.90;;;;;;4955773;28;20042;-73
2023/03/09 09:44:29;;;;;;;1.98;0.63;;;11.70;99.90;;;;;;4950586;28;20062;-74
2023/03/09 09:46:58;;;;;;;7.50;1.20;;;11.80;99.90;;;;;;4951092;28;20116;-71
2023/03/09 09:49:28;;;;;;;6.18;0.68;;;11.90;99.90;;;;;;4955540;28;20559;-73
2023/03/09 09:52:31;;;;;;;4.05;0.98;;;11.90;99.90;;;;;;4950044;28;20036;-73
2023/03/09 09:55:05;;;;;;;2.65;0.82;;;12.00;99.90;;;;;;4953715;28;20034;-73
2023/03/09 09:58:00;;;;;;;3.58;0.93;;;12.20;99.90;;;;;;4966906;28;20045;-73
2023/03/09 10:00:35;;;;;;;3.45;0.82;;;12.50;99.90;;;;;;4948820;28;20044;-74
2023/03/09 10:03:10;;;;;;;3.53;0.65;;;12.60;99.90;;;;;;4950130;28;20035;-73
2023/03/09 10:05:55;;;;;;;3.92;0.70;;;12.60;99.90;;;;;;4950952;28;20039;-73
2023/03/09 10:08:21;;;;;;;4.80;0.70;;;12.50;99.90;;;;;;4952448;28;20035;-74
2023/03/09 10:10:47;;;;;;;2.08;0.50;;;12.50;99.90;;;;;;4948892;28;20379;-73
2023/03/09 10:13:28;;;;;;;4.70;0.85;;;12.40;99.90;;;;;;4949691;28;20023;-74
2023/03/09 10:15:54;;;;;;;5.15;0.93;;;12.40;99.90;;;;;;4951492;28;20364;-73
2023/03/09 10:18:29;;;;;;;2.20;0.82;;;12.40;99.90;;;;;;4952941;28;20051;-72
2023/03/09 10:20:55;;;;;;;5.25;1.08;;;12.30;99.90;;;;;;4952248;28;20039;-73
2023/03/09 10:23:29;;;;;;;2.92;0.88;;;12.30;99.90;;;;;;4954101;28;20488;-72
2023/03/09 10:26:15;;;;;;;7.43;1.27;;;12.30;99.90;;;;;;4945539;28;20689;-73
2023/03/09 10:28:47;;;;;;;3.50;0.77;;;12.30;99.90;;;;;;4950339;28;20027;-72
2023/03/09 10:31:18;;;;;;;3.78;1.10;;;12.30;99.90;;;;;;4950121;28;20023;-73
2023/03/09 10:34:13;;;;;;;3.05;0.95;;;12.30;99.90;;;;;;4950698;28;20063;-74
2023/03/09 10:36:47;;;;;;;3.80;1.00;;;12.40;99.90;;;;;;4940245;28;20040;-73
2023/03/09 10:39:16;;;;;;;4.57;0.80;;;12.40;99.90;;;;;;4950549;28;20027;-72
2023/03/09 10:41:42;;;;;;;4.40;0.85;;;12.50;99.90;;;;;;4952484;28;20084;-73
2023/03/09 10:44:10;;;;;;;5.57;0.80;;;12.50;99.90;;;;;;4950517;28;20115;-73
2023/03/09 10:46:54;;;;;;;3.38;0.80;;;12.50;99.90;;;;;;4945347;28;20046;-73
2023/03/09 10:49:20;;;;;;;3.25;0.95;;;12.50;99.90;;;;;;4950500;28;20027;-70
2023/03/09 10:52:04;;;;;;;5.88;0.70;;;12.50;99.90;;;;;;4942861;28;20035;-71
2023/03/09 10:54:39;;;;;;;8.05;1.05;;;12.70;99.90;;;;;;4945180;28;20054;-71
2023/03/09 10:57:27;;;;;;;5.72;0.82;;;12.70;99.90;;;;;;4951172;28;20039;-73
2023/03/09 11:00:01;;;;;;;5.88;0.63;;;12.80;99.90;;;;;;4946247;28;20503;-74
2023/03/09 11:02:30;;;;;;;1.63;0.55;;;12.90;99.90;;;;;;4949188;28;20034;-76
2023/03/09 11:04:56;;;;;;;7.35;0.90;;;12.90;99.90;;;;;;4947354;28;20034;-73
2023/03/09 11:07:32;;;;;;;3.85;0.90;;;13.00;99.90;;;;;;4944634;28;20123;-73
2023/03/09 11:09:57;;;;;;;7.50;1.02;;;13.00;99.90;;;;;;4949595;28;20232;-73
2023/03/09 11:12:23;;;;;;;5.38;1.40;;;13.00;99.90;;;;;;4951336;28;20129;-73
2023/03/09 11:14:55;;;;;;;3.22;0.88;;;13.00;99.90;;;;;;4946435;28;20028;-74
2023/03/09 11:17:41;;;;;;;6.75;0.75;;;13.00;99.90;;;;;;4947048;28;20404;-74
2023/03/09 11:20:18;;;;;;;4.80;0.93;;;13.10;99.90;;;;;;4947428;28;20110;-73
2023/03/09 11:23:00;;;;;;;4.75;0.70;;;13.10;99.90;;;;;;4946175;28;20031;-73
2023/03/09 11:25:49;;;;;;;3.40;0.75;;;13.10;99.90;;;;;;4946662;28;20450;-74
2023/03/09 11:28:19;;;;;;;4.47;0.93;;;13.00;99.90;;;;;;4945845;28;20054;-74
2023/03/09 11:30:47;;;;;;;4.97;0.77;;;13.10;99.90;;;;;;4943890;28;20035;-74
2023/03/09 11:33:18;;;;;;;6.20;0.77;;;13.10;99.90;;;;;;4947671;28;20019;-74
2023/03/09 11:35:48;;;;;;;6.28;1.50;;;13.10;99.90;;;;;;4944277;28;20035;-74
2023/03/09 11:38:15;;;;;;;3.10;0.80;;;13.10;99.90;;;;;;4945688;28;20047;-76
2023/03/09 11:40:42;;;;;;;4.88;0.95;;;13.20;99.90;;;;;;4945858;28;20057;-73
2023/03/09 11:43:25;;;;;;;4.10;0.70;;;13.30;99.90;;;;;;4947242;28;20484;-73
2023/03/09 11:45:54;;;;;;;5.23;1.00;;;13.30;99.90;;;;;;4949198;28;20031;-74
2023/03/09 11:48:35;;;;;;;4.40;0.95;;;13.40;99.80;;;;;;4959780;28;20388;-74
2023/03/09 11:51:16;;;;;;;4.82;1.25;;;13.60;99.80;;;;;;4951929;28;20617;-75
2023/03/09 11:54:00;;;;;;;3.60;0.70;;;13.70;99.30;;;;;;4949777;28;20025;-75
2023/03/09 11:56:32;;;;;;;6.68;1.60;;;13.70;99.50;;;;;;4954182;28;20039;-74
2023/03/09 11:59:37;;;;;;;5.63;0.80;;;13.80;99.60;;;;;;4946831;28;20031;-74
2023/03/09 12:02:33;;;;;;;4.25;1.33;;;13.80;99.40;;;;;;4946540;28;20047;-75
2023/03/09 12:04:59;;;;;;;4.05;1.15;;;13.80;99.80;;;;;;4950688;28;20039;-74
2023/03/09 12:08:06;;;;;;;2.22;0.90;;;13.90;99.40;;;;;;4945846;28;20124;-74
2023/03/09 12:11:04;;;;;;;4.28;0.93;;;14.00;98.60;;;;;;4891643;29;20025;-73
2023/03/09 12:13:45;;;;;;;4.38;0.88;;;14.00;98.70;;;;;;4910442;29;20464;-74
2023/03/09 12:16:22;;;;;;;2.08;0.77;;;14.20;98.50;;;;;;4945571;28;20039;-74
2023/03/09 12:19:05;;;;;;;4.13;0.73;;;14.30;98.10;;;;;;4947041;28;20090;-73
2023/03/09 12:21:37;;;;;;;3.03;0.70;;;14.30;97.80;;;;;;4948017;28;20372;-73
2023/03/09 12:24:36;;;;;;;3.65;0.80;;;14.30;97.50;;;;;;4942726;28;20063;-73
2023/03/09 12:27:26;;;;;;;3.45;1.15;;;14.20;96.90;;;;;;4945133;28;20554;-74
2023/03/09 12:30:05;;;;;;;5.50;1.20;;;14.20;97.10;;;;;;4941518;28;20436;-74
2023/03/09 12:32:30;;;;;;;4.25;1.05;;;14.10;97.20;;;;;;4957551;28;20027;-74
2023/03/09 12:35:08;;;;;;;4.25;0.93;;;14.00;97.10;;;;;;4947827;28;20456;-75
2023/03/09 12:37:37;;;;;;;4.57;1.13;;;14.10;97.30;;;;;;4952506;28;20106;-74
2023/03/09 12:40:38;;;;;;;6.50;1.05;;;14.00;97.20;;;;;;4951257;28;20031;-72
2023/03/09 12:43:16;;;;;;;4.00;0.90;;;14.00;97.60;;;;;;4915808;29;20042;-72
2023/03/09 12:45:46;;;;;;;3.70;1.00;;;14.00;98.10;;;;;;4946644;28;20540;-73
2023/03/09 12:48:25;;;;;;;3.70;1.05;;;14.00;98.10;;;;;;4948685;28;20023;-73
2023/03/09 12:51:10;;;;;;;2.72;0.70;;;14.00;98.10;;;;;;4951033;28;20031;-72
2023/03/09 12:54:01;;;;;;;4.07;1.00;;;14.00;98.00;;;;;;4954931;28;20499;-72
2023/03/09 12:56:33;;;;;;;5.45;1.00;;;14.00;97.60;;;;;;4952510;29;20025;-74
2023/03/09 12:59:09;;;;;;;5.80;0.70;;;13.90;97.60;;;;;;4951039;28;20050;-72
2023/03/09 13:01:35;;;;;;;2.33;0.80;;;13.90;98.20;;;;;;4955360;28;20043;-72
2023/03/09 13:04:02;;;;;;;3.58;0.98;;;13.90;97.80;;;;;;4946578;28;20037;-73